createdAt,value
2019-03-13T00:00:36.259Z,926.9
2019-03-13T00:01:36.180Z,926.9
2019-03-13T00:02:36.493Z,926.9
2019-03-13T00:03:36.400Z,927
2019-03-13T00:04:36.307Z,927
2019-03-13T00:05:36.241Z,926.8
2019-03-13T00:06:36.146Z,926.7
2019-03-13T00:07:36.043Z,926.8
2019-03-13T00:08:36.035Z,926.9
2019-03-13T00:09:35.944Z,926.8
2019-03-13T00:10:35.849Z,926.8
2019-03-13T00:11:35.756Z,926.8
2019-03-13T00:12:36.119Z,926.8
2019-03-13T00:13:36.026Z,926.7
2019-03-13T00:14:35.992Z,926.6
2019-03-13T00:15:35.898Z,926.6
2019-03-13T00:16:35.843Z,926.7
2019-03-13T00:17:35.570Z,926.7
2019-03-13T00:18:35.319Z,925.9
2019-03-13T00:19:35.051Z,926.6
2019-03-13T00:20:34.777Z,926.6
2019-03-13T00:21:34.533Z,926.7
2019-03-13T00:22:34.843Z,926.7
2019-03-13T00:23:34.737Z,926.7
2019-03-13T00:24:34.619Z,926.5
2019-03-13T00:25:34.529Z,926.5
2019-03-13T00:26:34.427Z,926.3
2019-03-13T00:27:34.311Z,926.6
2019-03-13T00:28:34.199Z,926.7
2019-03-13T00:29:34.089Z,926.6
2019-03-13T00:30:33.987Z,926.6
2019-03-13T00:31:33.896Z,926.5
2019-03-13T00:32:34.208Z,926.6
2019-03-13T00:33:34.129Z,926.6
2019-03-13T00:34:34.018Z,926.6
2019-03-13T00:35:33.909Z,926.6
2019-03-13T00:36:33.791Z,926.4
2019-03-13T00:37:33.686Z,926.5
2019-03-13T00:38:33.595Z,926.6
2019-03-13T00:39:33.472Z,926.7
2019-03-13T00:40:33.360Z,926.7
2019-03-13T00:41:33.248Z,926.7
2019-03-13T00:42:33.620Z,926.6
2019-03-13T00:43:33.565Z,926.6
2019-03-13T00:44:33.469Z,926.7
2019-03-13T00:45:33.369Z,926.4
2019-03-13T00:46:33.198Z,926.4
2019-03-13T00:47:33.093Z,926.4
2019-03-13T00:48:32.915Z,926.5
2019-03-13T00:49:32.825Z,926.4
2019-03-13T00:50:32.559Z,926.4
2019-03-13T00:51:32.317Z,926.4
2019-03-13T00:52:32.674Z,926
2019-03-13T00:53:32.657Z,926.2
2019-03-13T00:54:32.573Z,926.1
2019-03-13T00:55:32.481Z,926.1
2019-03-13T00:56:32.425Z,926.3
2019-03-13T00:57:32.313Z,926.2
2019-03-13T00:58:32.248Z,926.2
2019-03-13T00:59:32.168Z,926.1
2019-03-13T01:00:32.080Z,926.1
2019-03-13T01:01:31.969Z,926.1
2019-03-13T01:02:32.347Z,926.1
2019-03-13T01:03:32.242Z,926
2019-03-13T01:04:32.152Z,926
2019-03-13T01:05:32.055Z,924.6
2019-03-13T01:06:31.937Z,925.9
2019-03-13T01:07:31.828Z,926
2019-03-13T01:08:31.746Z,925.9
2019-03-13T01:09:31.715Z,926
2019-03-13T01:10:31.608Z,926
2019-03-13T01:11:31.518Z,925.9
2019-03-13T01:12:31.851Z,925.8
2019-03-13T01:13:31.755Z,926
2019-03-13T01:14:31.761Z,926
2019-03-13T01:15:31.649Z,926
2019-03-13T01:16:31.538Z,926
2019-03-13T01:17:31.413Z,926
2019-03-13T01:18:31.328Z,926
2019-03-13T01:19:31.223Z,926.1
2019-03-13T01:20:31.147Z,926.2
2019-03-13T01:21:31.047Z,926.2
2019-03-13T01:22:31.384Z,926.3
2019-03-13T01:23:31.286Z,926.4
2019-03-13T01:24:31.190Z,926.5
2019-03-13T01:25:31.097Z,926.5
2019-03-13T01:26:30.993Z,926.7
2019-03-13T01:27:30.904Z,926.8
2019-03-13T01:28:30.800Z,926.8
2019-03-13T01:29:30.702Z,926.8
2019-03-13T01:30:30.592Z,926.9
2019-03-13T01:31:30.507Z,927
2019-03-13T01:32:30.832Z,927.1
2019-03-13T01:33:30.719Z,927.1
2019-03-13T01:34:30.702Z,927
2019-03-13T01:35:30.595Z,927.1
2019-03-13T01:36:30.483Z,927.2
2019-03-13T01:37:30.380Z,927.2
2019-03-13T01:38:30.272Z,927.3
2019-03-13T01:39:30.179Z,927.4
2019-03-13T01:40:30.076Z,927.4
2019-03-13T01:41:29.959Z,927.5
2019-03-13T01:42:30.358Z,927.2
2019-03-13T01:43:30.247Z,927.4
2019-03-13T01:44:30.154Z,927.4
2019-03-13T01:45:30.064Z,927.5
2019-03-13T01:46:29.956Z,927.5
2019-03-13T01:47:29.906Z,927.7
2019-03-13T01:48:29.791Z,927.7
2019-03-13T01:49:29.707Z,927.7
2019-03-13T01:50:29.617Z,927.7
2019-03-13T01:51:29.504Z,927.8
2019-03-13T01:52:33.153Z,927.8
2019-03-13T01:53:33.042Z,927.8
2019-03-13T01:54:32.947Z,928
2019-03-13T01:55:32.855Z,928.1
2019-03-13T01:56:32.740Z,928
2019-03-13T01:57:32.618Z,928
2019-03-13T01:58:32.502Z,928.2
2019-03-13T01:59:32.418Z,928
2019-03-13T02:00:32.339Z,928.2
2019-03-13T02:01:32.247Z,928.3
2019-03-13T02:02:32.716Z,928.2
2019-03-13T02:03:32.662Z,928.1
2019-03-13T02:04:32.568Z,928.1
2019-03-13T02:05:32.462Z,928
2019-03-13T02:06:32.379Z,928.1
2019-03-13T02:07:32.275Z,928.1
2019-03-13T02:08:32.164Z,928
2019-03-13T02:09:32.071Z,926.9
2019-03-13T02:10:31.981Z,926.7
2019-03-13T02:11:31.879Z,928.1
2019-03-13T02:12:32.256Z,928.2
2019-03-13T02:13:32.224Z,928
2019-03-13T02:14:32.135Z,928.2
2019-03-13T02:15:32.063Z,928.2
2019-03-13T02:16:31.962Z,928.2
2019-03-13T02:17:31.848Z,928.1
2019-03-13T02:18:31.742Z,928.1
2019-03-13T02:19:31.628Z,928
2019-03-13T02:20:31.506Z,928.1
2019-03-13T02:21:31.412Z,928.2
2019-03-13T02:22:31.738Z,928
2019-03-13T02:23:31.646Z,928
2019-03-13T02:24:31.558Z,928.1
2019-03-13T02:25:31.459Z,928.3
2019-03-13T02:26:31.190Z,928.2
2019-03-13T02:27:31.072Z,928.3
2019-03-13T02:28:30.972Z,928.1
2019-03-13T02:29:30.758Z,928.2
2019-03-13T02:30:30.522Z,928.4
2019-03-13T02:31:30.262Z,928.3
2019-03-13T02:32:30.907Z,928.5
2019-03-13T02:33:30.667Z,928.5
2019-03-13T02:34:30.616Z,928.5
2019-03-13T02:35:30.393Z,928.5
2019-03-13T02:36:30.304Z,928.5
2019-03-13T02:37:30.049Z,928.8
2019-03-13T02:38:29.971Z,928.6
2019-03-13T02:39:29.899Z,928.6
2019-03-13T02:40:29.844Z,928.6
2019-03-13T02:41:29.588Z,928.7
2019-03-13T02:42:29.980Z,928.2
2019-03-13T02:43:29.889Z,928.8
2019-03-13T02:44:29.859Z,928.7
2019-03-13T02:45:29.770Z,928.9
2019-03-13T02:46:29.693Z,929
2019-03-13T02:47:29.607Z,928.9
2019-03-13T02:48:29.527Z,929.2
2019-03-13T02:49:29.468Z,929
2019-03-13T02:50:29.396Z,929.1
2019-03-13T02:51:29.296Z,929.2
2019-03-13T02:52:29.733Z,929.2
2019-03-13T02:53:29.841Z,929.2
2019-03-13T02:54:29.775Z,929.3
2019-03-13T02:55:29.759Z,929.3
2019-03-13T02:56:29.645Z,929.3
2019-03-13T02:57:29.548Z,929.3
2019-03-13T02:58:29.460Z,929.3
2019-03-13T02:59:29.383Z,929.3
2019-03-13T03:00:29.329Z,929.3
2019-03-13T03:01:29.241Z,929.2
2019-03-13T03:02:29.609Z,929.3
2019-03-13T03:03:29.540Z,929.4
2019-03-13T03:04:29.429Z,929.3
2019-03-13T03:05:29.326Z,929.2
2019-03-13T03:06:29.288Z,927.9
2019-03-13T03:07:29.218Z,929.4
2019-03-13T03:08:29.132Z,929.5
2019-03-13T03:09:29.034Z,929.4
2019-03-13T03:10:28.962Z,929.4
2019-03-13T03:11:28.887Z,929.2
2019-03-13T03:12:29.311Z,929.2
2019-03-13T03:13:29.305Z,929.3
2019-03-13T03:14:29.232Z,929.2
2019-03-13T03:15:29.290Z,929.2
2019-03-13T03:16:29.213Z,929.5
2019-03-13T03:17:29.135Z,929.4
2019-03-13T03:18:29.042Z,929.3
2019-03-13T03:19:28.948Z,929.5
2019-03-13T03:20:28.834Z,929.5
2019-03-13T03:21:28.798Z,929.5
2019-03-13T03:22:29.571Z,929.5
2019-03-13T03:23:29.477Z,929.5
2019-03-13T03:24:29.393Z,929.5
2019-03-13T03:25:29.337Z,929.6
2019-03-13T03:26:29.303Z,929.5
2019-03-13T03:27:29.325Z,929.6
2019-03-13T03:28:29.304Z,929.7
2019-03-13T03:29:29.236Z,929.8
2019-03-13T03:30:29.198Z,929.8
2019-03-13T03:31:29.240Z,929.7
2019-03-13T03:32:29.899Z,929.7
2019-03-13T03:33:29.841Z,929.8
2019-03-13T03:34:29.826Z,930
2019-03-13T03:35:29.584Z,929.9
2019-03-13T03:36:29.432Z,929.9
2019-03-13T03:37:29.219Z,930
2019-03-13T03:38:29.019Z,930
2019-03-13T03:39:28.764Z,930.1
2019-03-13T03:40:28.702Z,930
2019-03-13T03:41:28.466Z,930.1
2019-03-13T03:42:28.710Z,930.1
2019-03-13T03:43:41.678Z,930.1
2019-03-13T03:44:41.425Z,930.2
2019-03-13T03:45:41.189Z,930.2
2019-03-13T03:46:41.033Z,930.2
2019-03-13T03:47:41.205Z,930.4
2019-03-13T03:48:40.934Z,930.2
2019-03-13T03:49:40.842Z,930.3
2019-03-13T03:50:40.751Z,930.3
2019-03-13T03:51:40.553Z,930.3
2019-03-13T03:52:41.201Z,930.3
2019-03-13T03:53:41.182Z,930.3
2019-03-13T03:54:41.103Z,930.4
2019-03-13T03:55:41.021Z,930.5
2019-03-13T03:56:40.776Z,930.4
2019-03-13T03:57:40.542Z,930.5
2019-03-13T03:58:40.474Z,930.4
2019-03-13T03:59:40.388Z,930
2019-03-13T04:00:40.132Z,930.7
2019-03-13T04:01:40.043Z,930.7
2019-03-13T04:02:40.426Z,930.6
2019-03-13T04:03:40.342Z,930.6
2019-03-13T04:04:40.132Z,930.7
2019-03-13T04:05:40.047Z,930.7
2019-03-13T04:06:39.945Z,930.7
2019-03-13T04:07:39.694Z,930.6
2019-03-13T04:08:39.613Z,930.5
2019-03-13T04:09:39.531Z,930.7
2019-03-13T04:10:39.429Z,930.6
2019-03-13T04:11:39.425Z,930.7
2019-03-13T04:12:39.851Z,930.7
2019-03-13T04:13:39.791Z,930.8
2019-03-13T04:14:39.722Z,930.9
2019-03-13T04:15:39.633Z,930.9
2019-03-13T04:16:39.534Z,930.9
2019-03-13T04:17:39.457Z,930.9
2019-03-13T04:18:39.404Z,930.9
2019-03-13T04:19:39.422Z,930.8
2019-03-13T04:20:39.353Z,930.9
2019-03-13T04:21:39.267Z,931
2019-03-13T04:22:43.203Z,930.8
2019-03-13T04:23:43.102Z,930.8
2019-03-13T04:24:43.050Z,931
2019-03-13T04:25:42.963Z,931
2019-03-13T04:26:42.882Z,931
2019-03-13T04:27:42.845Z,930.8
2019-03-13T04:28:42.765Z,931
2019-03-13T04:29:42.654Z,931
2019-03-13T04:30:42.423Z,930.9
2019-03-13T04:31:42.324Z,931
2019-03-13T04:32:42.507Z,931
2019-03-13T04:33:42.421Z,931
2019-03-13T04:34:42.361Z,931
2019-03-13T04:35:42.107Z,931
2019-03-13T04:36:41.870Z,931
2019-03-13T04:37:41.784Z,931
2019-03-13T04:38:41.769Z,931
2019-03-13T04:39:41.675Z,931
2019-03-13T04:40:41.423Z,931.3
2019-03-13T04:41:41.163Z,931.2
2019-03-13T04:42:42.332Z,931.2
2019-03-13T04:43:42.300Z,931.4
2019-03-13T04:44:42.201Z,931.4
2019-03-13T04:45:42.087Z,931.4
2019-03-13T04:46:41.999Z,931.4
2019-03-13T04:47:41.925Z,931.3
2019-03-13T04:48:41.665Z,931.4
2019-03-13T04:49:41.551Z,931.4
2019-03-13T04:50:41.447Z,931.5
2019-03-13T04:51:41.381Z,931.5
2019-03-13T04:52:41.792Z,931.4
2019-03-13T04:53:41.716Z,931.5
2019-03-13T04:54:41.599Z,931.5
2019-03-13T04:55:41.560Z,931.5
2019-03-13T04:56:41.483Z,931.4
2019-03-13T04:57:41.399Z,931.6
2019-03-13T04:58:41.289Z,931.3
2019-03-13T04:59:41.167Z,931.5
2019-03-13T05:00:41.073Z,931.4
2019-03-13T05:01:40.976Z,931.4
2019-03-13T05:02:41.319Z,931.3
2019-03-13T05:03:41.211Z,931.5
2019-03-13T05:04:41.118Z,931.4
2019-03-13T05:05:40.995Z,931.6
2019-03-13T05:06:40.909Z,931.5
2019-03-13T05:07:40.798Z,931.6
2019-03-13T05:08:46.483Z,931.5
2019-03-13T05:09:46.370Z,931.4
2019-03-13T05:10:46.273Z,931.4
2019-03-13T05:11:46.161Z,931.4
2019-03-13T05:12:46.848Z,931.5
2019-03-13T05:13:46.751Z,931.4
2019-03-13T05:14:46.647Z,931.5
2019-03-13T05:15:46.578Z,931.4
2019-03-13T05:16:46.332Z,931.4
2019-03-13T05:17:46.062Z,931.4
2019-03-13T05:18:45.783Z,931.4
2019-03-13T05:19:45.518Z,931.4
2019-03-13T05:20:45.263Z,931.4
2019-03-13T05:21:45.016Z,931.5
2019-03-13T05:22:45.359Z,931.4
2019-03-13T05:23:45.236Z,931.5
2019-03-13T05:24:45.144Z,931.6
2019-03-13T05:25:45.043Z,931.6
2019-03-13T05:26:44.951Z,931.5
2019-03-13T05:27:44.857Z,931.6
2019-03-13T05:28:44.745Z,931.6
2019-03-13T05:29:44.649Z,931.6
2019-03-13T05:30:44.547Z,931.6
2019-03-13T05:31:44.481Z,931.7
2019-03-13T05:32:44.827Z,931.6
2019-03-13T05:33:44.711Z,931.6
2019-03-13T05:34:44.644Z,931.7
2019-03-13T05:35:44.581Z,931.7
2019-03-13T05:36:44.477Z,931.6
2019-03-13T05:37:44.369Z,931.7
2019-03-13T05:38:44.388Z,931.6
2019-03-13T05:39:44.281Z,931.6
2019-03-13T05:40:44.167Z,931.8
2019-03-13T05:41:44.071Z,931.6
2019-03-13T05:42:44.426Z,931.6
2019-03-13T05:43:44.323Z,931.6
2019-03-13T05:44:44.213Z,931.7
2019-03-13T05:45:44.113Z,931.7
2019-03-13T05:46:44.009Z,931.7
2019-03-13T05:47:43.913Z,931.5
2019-03-13T05:48:43.815Z,931.7
2019-03-13T05:49:43.703Z,931.7
2019-03-13T05:50:43.601Z,931.6
2019-03-13T05:51:43.506Z,931.6
2019-03-13T05:52:43.831Z,931.7
2019-03-13T05:53:43.729Z,931.8
2019-03-13T05:54:43.620Z,931.5
2019-03-13T05:55:43.355Z,931.7
2019-03-13T05:56:43.144Z,931.8
2019-03-13T05:57:42.861Z,931.7
2019-03-13T05:58:42.633Z,931.1
2019-03-13T05:59:42.358Z,931.8
2019-03-13T06:00:42.155Z,931.8
2019-03-13T06:01:41.911Z,931.6
2019-03-13T06:02:42.251Z,931.4
2019-03-13T06:03:42.225Z,931.8
2019-03-13T06:04:42.112Z,931.8
2019-03-13T06:05:42.009Z,931.9
2019-03-13T06:06:41.935Z,931.8
2019-03-13T06:07:41.829Z,931.8
2019-03-13T06:08:41.732Z,931.9
2019-03-13T06:09:41.915Z,931.8
2019-03-13T06:10:41.825Z,931.9
2019-03-13T06:11:41.761Z,932
2019-03-13T06:12:42.107Z,931.9
2019-03-13T06:13:42.016Z,932
2019-03-13T06:14:41.919Z,932
2019-03-13T06:15:41.801Z,931.9
2019-03-13T06:16:41.728Z,930.5
2019-03-13T06:17:41.650Z,932
2019-03-13T06:18:41.536Z,931.3
2019-03-13T06:19:41.445Z,932.1
2019-03-13T06:20:41.338Z,931.9
2019-03-13T06:21:41.231Z,931.8
2019-03-13T06:22:41.567Z,932
2019-03-13T06:23:41.458Z,932.1
2019-03-13T06:24:41.343Z,932.1
2019-03-13T06:25:41.225Z,932.1
2019-03-13T06:26:41.133Z,932.3
2019-03-13T06:27:41.031Z,932.2
2019-03-13T06:28:40.953Z,932.2
2019-03-13T06:29:40.865Z,932.3
2019-03-13T06:30:40.748Z,932.3
2019-03-13T06:31:40.665Z,932.3
2019-03-13T06:32:40.999Z,932.1
2019-03-13T06:33:40.925Z,932.3
2019-03-13T06:34:40.934Z,932.2
2019-03-13T06:35:40.843Z,932.3
2019-03-13T06:36:40.571Z,932.3
2019-03-13T06:37:40.287Z,932.3
2019-03-13T06:38:40.040Z,932.3
2019-03-13T06:39:39.766Z,932.4
2019-03-13T06:40:39.489Z,932.3
2019-03-13T06:41:39.215Z,932.3
2019-03-13T06:42:40.427Z,932.3
2019-03-13T06:43:40.346Z,932.3
2019-03-13T06:44:40.247Z,932.3
2019-03-13T06:45:40.182Z,932.3
2019-03-13T06:46:40.080Z,932.3
2019-03-13T06:47:39.973Z,932.3
2019-03-13T06:48:39.875Z,932.3
2019-03-13T06:49:39.765Z,932.4
2019-03-13T06:50:39.691Z,932.3
2019-03-13T06:51:39.570Z,932.5
2019-03-13T06:52:39.917Z,931
2019-03-13T06:53:39.810Z,932.3
2019-03-13T06:54:39.564Z,932.5
2019-03-13T06:55:39.461Z,932.4
2019-03-13T06:56:39.201Z,932.4
2019-03-13T06:57:38.942Z,932.4
2019-03-13T06:58:38.677Z,932.3
2019-03-13T06:59:38.417Z,932.3
2019-03-13T07:00:38.162Z,932.4
2019-03-13T07:01:37.943Z,932.4
2019-03-13T07:02:38.268Z,932.4
2019-03-13T07:03:38.158Z,932.4
2019-03-13T07:04:38.054Z,932.3
2019-03-13T07:05:37.978Z,932.4
2019-03-13T07:06:37.874Z,932.5
2019-03-13T07:07:37.766Z,930.9
2019-03-13T07:08:37.652Z,932.3
2019-03-13T07:09:40.536Z,932.3
2019-03-13T07:10:40.446Z,932.5
2019-03-13T07:11:40.353Z,931.2
2019-03-13T07:12:40.684Z,932.3
2019-03-13T07:13:40.574Z,932.4
2019-03-13T07:14:40.482Z,932.4
2019-03-13T07:15:40.372Z,932.3
2019-03-13T07:16:40.252Z,932.4
2019-03-13T07:17:40.169Z,932.4
2019-03-13T07:18:40.090Z,932.3
2019-03-13T07:19:40.003Z,932.3
2019-03-13T07:20:39.930Z,932.3
2019-03-13T07:21:39.876Z,932.4
2019-03-13T07:22:40.217Z,932.3
2019-03-13T07:23:40.132Z,932.5
2019-03-13T07:24:40.042Z,932.4
2019-03-13T07:25:39.941Z,932.4
2019-03-13T07:26:40.429Z,932.4
2019-03-13T07:27:40.414Z,932.4
2019-03-13T07:28:40.402Z,932.4
2019-03-13T07:29:40.296Z,932.4
2019-03-13T07:30:40.283Z,932.5
2019-03-13T07:31:40.272Z,932.3
2019-03-13T07:32:40.569Z,932.4
2019-03-13T07:33:40.466Z,932.5
2019-03-13T07:34:44.071Z,932.5
2019-03-13T07:35:43.970Z,932.4
2019-03-13T07:36:43.882Z,932.4
2019-03-13T07:37:43.762Z,932.5
2019-03-13T07:38:43.652Z,932.5
2019-03-13T07:39:43.550Z,932.5
2019-03-13T07:40:43.451Z,932.4
2019-03-13T07:41:43.348Z,932.5
2019-03-13T07:42:43.711Z,932.5
2019-03-13T07:43:43.600Z,932.5
2019-03-13T07:44:43.494Z,932.6
2019-03-13T07:45:43.394Z,932.6
2019-03-13T07:46:43.372Z,932.5
2019-03-13T07:47:43.290Z,932.6
2019-03-13T07:48:43.186Z,932.5
2019-03-13T07:49:43.083Z,932.5
2019-03-13T07:50:42.968Z,932.5
2019-03-13T07:51:42.868Z,932.6
2019-03-13T07:52:43.215Z,932.6
2019-03-13T07:53:43.120Z,932.6
2019-03-13T07:54:43.008Z,932.6
2019-03-13T07:55:42.911Z,932.6
2019-03-13T07:56:42.656Z,932.6
2019-03-13T07:57:42.395Z,932.5
2019-03-13T07:58:44.932Z,932.5
2019-03-13T07:59:44.684Z,932
2019-03-13T08:00:44.424Z,932.5
2019-03-13T08:01:44.162Z,932.5
2019-03-13T08:02:44.594Z,932.5
2019-03-13T08:03:44.510Z,932.6
2019-03-13T08:04:44.422Z,932.7
2019-03-13T08:05:44.328Z,932.6
2019-03-13T08:06:44.218Z,932.6
2019-03-13T08:07:44.198Z,932.4
2019-03-13T08:08:44.104Z,932.4
2019-03-13T08:09:44.007Z,932.5
2019-03-13T08:10:43.894Z,932.7
2019-03-13T08:11:45.457Z,932.4
2019-03-13T08:12:45.796Z,932.7
2019-03-13T08:13:45.711Z,932.7
2019-03-13T08:14:45.668Z,932.6
2019-03-13T08:15:45.552Z,932.7
2019-03-13T08:16:45.430Z,932.7
2019-03-13T08:17:45.336Z,932.8
2019-03-13T08:18:45.264Z,932.7
2019-03-13T08:19:45.167Z,932.7
2019-03-13T08:20:45.066Z,932.7
2019-03-13T08:21:44.966Z,932.7
2019-03-13T08:22:45.282Z,932.7
2019-03-13T08:23:45.178Z,932.7
2019-03-13T08:24:45.088Z,932.8
2019-03-13T08:25:44.986Z,932.8
2019-03-13T08:26:44.892Z,932.8
2019-03-13T08:27:44.633Z,932.7
2019-03-13T08:28:44.390Z,932.8
2019-03-13T08:29:44.326Z,932.8
2019-03-13T08:30:44.070Z,932.7
2019-03-13T08:31:43.878Z,932.7
2019-03-13T08:32:44.214Z,932.7
2019-03-13T08:33:43.948Z,932.7
2019-03-13T08:34:43.670Z,932.6
2019-03-13T08:35:43.585Z,932.7
2019-03-13T08:36:43.506Z,932.6
2019-03-13T08:37:43.247Z,932.5
2019-03-13T08:38:42.976Z,932.4
2019-03-13T08:39:42.882Z,932.5
2019-03-13T08:40:42.641Z,932.7
2019-03-13T08:41:42.540Z,932.5
2019-03-13T08:42:42.872Z,932.6
2019-03-13T08:43:42.779Z,932.5
2019-03-13T08:44:42.674Z,932.6
2019-03-13T08:45:42.597Z,932.5
2019-03-13T08:46:42.490Z,932.5
2019-03-13T08:47:43.292Z,932.5
2019-03-13T08:48:43.190Z,932.5
2019-03-13T08:49:43.202Z,932.5
2019-03-13T08:50:43.118Z,932.5
2019-03-13T08:51:43.028Z,932.5
2019-03-13T08:52:43.373Z,932.4
2019-03-13T08:53:43.270Z,932.5
2019-03-13T08:54:43.157Z,932.5
2019-03-13T08:55:43.062Z,932.5
2019-03-13T08:56:42.994Z,932.5
2019-03-13T08:57:42.985Z,932.5
2019-03-13T08:58:42.902Z,932.4
2019-03-13T08:59:42.810Z,932.4
2019-03-13T09:00:42.803Z,932.6
2019-03-13T09:01:42.748Z,932.4
2019-03-13T09:02:43.087Z,932.5
2019-03-13T09:03:43.010Z,932.6
2019-03-13T09:04:43.182Z,932.5
2019-03-13T09:05:43.111Z,932.5
2019-03-13T09:06:43.028Z,932.5
2019-03-13T09:07:42.918Z,932.5
2019-03-13T09:08:42.826Z,932.4
2019-03-13T09:09:42.744Z,932.5
2019-03-13T09:10:42.686Z,932.5
2019-03-13T09:11:42.615Z,932.5
2019-03-13T09:12:42.982Z,932.5
2019-03-13T09:13:42.936Z,932.5
2019-03-13T09:14:42.920Z,932.4
2019-03-13T09:15:42.835Z,931
2019-03-13T09:16:42.730Z,931.4
2019-03-13T09:17:42.656Z,932.4
2019-03-13T09:18:42.544Z,932.3
2019-03-13T09:19:42.454Z,932.4
2019-03-13T09:20:42.359Z,932.4
2019-03-13T09:21:42.254Z,931.8
2019-03-13T09:22:42.594Z,932.4
2019-03-13T09:23:42.526Z,932.4
2019-03-13T09:24:42.440Z,932.3
2019-03-13T09:25:42.373Z,932.2
2019-03-13T09:26:42.156Z,932.3
2019-03-13T09:27:42.135Z,932.2
2019-03-13T09:28:42.184Z,932.2
2019-03-13T09:29:42.071Z,932.3
2019-03-13T09:30:41.973Z,932.2
2019-03-13T09:31:41.866Z,932.2
2019-03-13T09:32:42.200Z,932.3
2019-03-13T09:33:42.132Z,932.2
2019-03-13T09:34:42.025Z,932.1
2019-03-13T09:35:42.003Z,932.1
2019-03-13T09:36:41.910Z,932.1
2019-03-13T09:37:41.934Z,932.1
2019-03-13T09:38:41.847Z,932
2019-03-13T09:39:41.833Z,932.1
2019-03-13T09:40:41.742Z,932.2
2019-03-13T09:41:41.626Z,932.1
2019-03-13T09:42:42.038Z,932.2
2019-03-13T09:43:41.932Z,932.2
2019-03-13T09:44:41.837Z,932.1
2019-03-13T09:45:41.766Z,932.1
2019-03-13T09:46:41.674Z,932.1
2019-03-13T09:47:41.649Z,932.1
2019-03-13T09:48:41.595Z,932.1
2019-03-13T09:49:41.508Z,932
2019-03-13T09:50:41.471Z,932.1
2019-03-13T09:51:41.364Z,932.2
2019-03-13T09:52:41.874Z,932.1
2019-03-13T09:53:41.779Z,932.1
2019-03-13T09:54:41.725Z,932.2
2019-03-13T09:55:41.614Z,932
2019-03-13T09:56:41.514Z,932.1
2019-03-13T09:57:41.404Z,932.1
2019-03-13T09:58:41.300Z,932.1
2019-03-13T09:59:44.618Z,932.2
2019-03-13T10:00:45.420Z,932.2
2019-03-13T10:01:45.309Z,932.2
2019-03-13T10:02:45.768Z,932.1
2019-03-13T10:03:45.696Z,932
2019-03-13T10:04:45.622Z,932
2019-03-13T10:05:45.556Z,932.1
2019-03-13T10:06:45.458Z,932.1
2019-03-13T10:07:45.347Z,932.2
2019-03-13T10:08:45.246Z,932.1
2019-03-13T10:09:45.154Z,932.1
2019-03-13T10:10:45.087Z,932.1
2019-03-13T10:11:45.083Z,932
2019-03-13T10:12:45.407Z,932
2019-03-13T10:13:45.294Z,932.2
2019-03-13T10:14:45.228Z,932
2019-03-13T10:15:45.176Z,932.1
2019-03-13T10:16:45.079Z,931.9
2019-03-13T10:17:44.980Z,932
2019-03-13T10:18:44.718Z,932
2019-03-13T10:19:44.606Z,932.1
2019-03-13T10:20:47.584Z,932
2019-03-13T10:21:47.485Z,932
2019-03-13T10:22:47.930Z,932
2019-03-13T10:23:47.864Z,932.1
2019-03-13T10:24:47.748Z,931.9
2019-03-13T10:25:50.244Z,932
2019-03-13T10:26:50.131Z,931.9
2019-03-13T10:27:50.034Z,932
2019-03-13T10:28:49.925Z,931.9
2019-03-13T10:29:49.815Z,932
2019-03-13T10:30:49.708Z,932
2019-03-13T10:31:49.654Z,932
2019-03-13T10:32:49.997Z,931.8
2019-03-13T10:33:49.905Z,931.8
2019-03-13T10:34:49.797Z,931.8
2019-03-13T10:35:49.714Z,931.7
2019-03-13T10:36:51.747Z,931.8
2019-03-13T10:37:51.640Z,931.8
2019-03-13T10:38:51.649Z,931.9
2019-03-13T10:39:51.568Z,931.7
2019-03-13T10:40:51.456Z,931.9
2019-03-13T10:41:51.366Z,931.9
2019-03-13T10:42:51.814Z,931.9
2019-03-13T10:43:51.987Z,931.8
2019-03-13T10:44:51.958Z,931.8
2019-03-13T10:45:51.832Z,931.8
2019-03-13T10:46:51.797Z,931.8
2019-03-13T10:47:51.725Z,931.7
2019-03-13T10:48:54.513Z,931.6
2019-03-13T10:49:54.422Z,930.3
2019-03-13T10:50:54.367Z,931.7
2019-03-13T10:51:54.340Z,931.7
2019-03-13T10:52:54.673Z,931.7
2019-03-13T10:53:54.563Z,931.6
2019-03-13T10:54:54.474Z,931.6
2019-03-13T10:55:56.167Z,931.5
2019-03-13T10:56:56.173Z,931.5
2019-03-13T10:57:56.077Z,931.6
2019-03-13T10:58:55.975Z,931.6
2019-03-13T10:59:55.941Z,931.5
2019-03-13T11:00:55.836Z,931.6
2019-03-13T11:01:55.739Z,931.7
2019-03-13T11:02:56.099Z,931.5
2019-03-13T11:03:55.995Z,931.6
2019-03-13T11:04:55.907Z,931.5
2019-03-13T11:05:55.814Z,931.4
2019-03-13T11:06:56.408Z,931.4
2019-03-13T11:07:56.339Z,931.4
2019-03-13T11:08:56.239Z,931.5
2019-03-13T11:09:55.983Z,931.3
2019-03-13T11:10:55.914Z,931.4
2019-03-13T11:11:55.642Z,931.4
2019-03-13T11:12:55.973Z,931.5
2019-03-13T11:13:55.972Z,931.4
2019-03-13T11:14:55.889Z,931.5
2019-03-13T11:15:55.795Z,931.4
2019-03-13T11:16:55.670Z,931.4
2019-03-13T11:17:55.571Z,931.4
2019-03-13T11:18:55.471Z,931.4
2019-03-13T11:19:55.384Z,931.3
2019-03-13T11:20:55.317Z,931.3
2019-03-13T11:21:55.223Z,931.3
2019-03-13T11:22:55.580Z,931.2
2019-03-13T11:23:55.477Z,931
2019-03-13T11:24:55.382Z,931.2
2019-03-13T11:25:55.282Z,931.2
2019-03-13T11:26:55.173Z,931.1
2019-03-13T11:27:55.067Z,931.1
2019-03-13T11:28:54.970Z,931.1
2019-03-13T11:29:54.907Z,931.2
2019-03-13T11:30:54.819Z,931.2
2019-03-13T11:31:54.726Z,931.2
2019-03-13T11:32:55.066Z,931.2
2019-03-13T11:33:55.000Z,931.2
2019-03-13T11:34:54.949Z,931.3
2019-03-13T11:35:54.836Z,931.4
2019-03-13T11:36:54.741Z,929.9
2019-03-13T11:37:54.629Z,931.2
2019-03-13T11:38:54.535Z,931.2
2019-03-13T11:39:58.463Z,931.3
2019-03-13T11:40:58.350Z,931.3
2019-03-13T11:41:58.239Z,931.1
2019-03-13T11:42:58.581Z,931.2
2019-03-13T11:43:58.501Z,931.3
2019-03-13T11:44:58.407Z,931.3
2019-03-13T11:45:58.297Z,931.3
2019-03-13T11:46:58.191Z,931.3
2019-03-13T11:47:58.169Z,931.2
2019-03-13T11:48:58.077Z,931.4
2019-03-13T11:49:57.992Z,931.2
2019-03-13T11:50:57.905Z,929.8
2019-03-13T11:51:57.903Z,931.2
2019-03-13T11:52:58.236Z,931.3
2019-03-13T11:53:58.154Z,931.3
2019-03-13T11:54:58.079Z,931.3
2019-03-13T11:55:57.975Z,931.3
2019-03-13T11:56:57.875Z,931.2
2019-03-13T11:57:57.757Z,931.3
2019-03-13T11:58:57.649Z,930.6
2019-03-13T11:59:57.979Z,929.9
2019-03-13T12:00:57.895Z,931.2
2019-03-13T12:01:57.789Z,931.3
2019-03-13T12:02:58.071Z,931.1
2019-03-13T12:03:57.974Z,931.3
2019-03-13T12:04:57.875Z,931.3
2019-03-13T12:05:57.873Z,931.3
2019-03-13T12:06:57.759Z,931.2
2019-03-13T12:07:57.491Z,931.2
2019-03-13T12:08:57.418Z,931.4
2019-03-13T12:09:57.151Z,931.4
2019-03-13T12:10:56.914Z,930.2
2019-03-13T12:11:56.635Z,931.4
2019-03-13T12:12:56.947Z,931.5
2019-03-13T12:13:56.854Z,931.3
2019-03-13T12:14:56.797Z,931.4
2019-03-13T12:15:56.755Z,931.3
2019-03-13T12:16:56.677Z,931.3
2019-03-13T12:17:56.579Z,931.3
2019-03-13T12:18:56.477Z,931.2
2019-03-13T12:19:56.384Z,931.2
2019-03-13T12:20:59.977Z,931.2
2019-03-13T12:21:59.873Z,931.1
2019-03-13T12:23:00.199Z,931.2
2019-03-13T12:24:00.153Z,931.2
2019-03-13T12:25:00.054Z,931.3
2019-03-13T12:26:03.597Z,931.3
2019-03-13T12:27:03.519Z,931.3
2019-03-13T12:28:03.401Z,931.2
2019-03-13T12:29:03.148Z,931.2
2019-03-13T12:30:03.064Z,931.1
2019-03-13T12:31:02.990Z,930.9
2019-03-13T12:32:03.019Z,931.1
2019-03-13T12:33:03.407Z,930.2
2019-03-13T12:34:03.321Z,931.1
2019-03-13T12:35:03.237Z,931.1
2019-03-13T12:36:03.149Z,931.1
2019-03-13T12:37:03.040Z,930.9
2019-03-13T12:38:02.960Z,931.1
2019-03-13T12:39:02.865Z,931.1
2019-03-13T12:40:02.789Z,931
2019-03-13T12:41:02.707Z,931
2019-03-13T12:42:02.642Z,930.9
2019-03-13T12:43:03.132Z,931
2019-03-13T12:44:03.060Z,930.9
2019-03-13T12:45:02.999Z,931.1
2019-03-13T12:46:02.909Z,931
2019-03-13T12:47:02.839Z,931
2019-03-13T12:48:17.417Z,931
2019-03-13T12:49:17.333Z,931
2019-03-13T12:50:17.210Z,931.1
2019-03-13T12:51:17.111Z,931.1
2019-03-13T12:52:17.021Z,931
2019-03-13T12:53:17.361Z,930.9
2019-03-13T12:54:17.351Z,931
2019-03-13T12:55:17.267Z,931
2019-03-13T12:56:17.169Z,930.8
2019-03-13T12:57:17.085Z,930.8
2019-03-13T12:58:16.970Z,930.8
2019-03-13T12:59:16.878Z,930.8